createdAt,value
2023-03-17T00:01:44.978Z,6.70
2023-03-17T00:04:13.500Z,6.80
2023-03-17T00:06:42.659Z,6.81
2023-03-17T00:09:14.613Z,6.74
2023-03-17T00:11:42.940Z,6.45
2023-03-17T00:14:11.276Z,6.12
2023-03-17T00:16:43.730Z,6.28
2023-03-17T00:19:16.624Z,6.26
2023-03-17T00:21:45.171Z,6.40
2023-03-17T00:24:15.355Z,6.32
2023-03-17T00:26:43.670Z,6.51
2023-03-17T00:29:11.974Z,6.66
2023-03-17T00:31:41.334Z,6.66
2023-03-17T00:34:13.092Z,6.68
2023-03-17T00:36:49.685Z,6.51
2023-03-17T00:39:18.498Z,6.60
2023-03-17T00:41:50.329Z,6.38
2023-03-17T00:44:18.518Z,6.36
2023-03-17T00:46:50.765Z,6.55
2023-03-17T00:49:21.230Z,6.67
2023-03-17T00:51:50.611Z,6.63
2023-03-17T00:54:20.547Z,6.61
2023-03-17T00:56:49.234Z,6.39
2023-03-17T00:59:22.618Z,6.38
2023-03-17T01:01:52.085Z,6.31
2023-03-17T01:04:22.792Z,6.55
2023-03-17T01:06:52.134Z,6.73
2023-03-17T01:09:21.139Z,6.77
2023-03-17T01:11:49.367Z,6.81
2023-03-17T01:14:17.795Z,6.58
2023-03-17T01:16:45.849Z,6.66
2023-03-17T01:19:16.996Z,6.66
2023-03-17T01:21:45.624Z,6.72
2023-03-17T01:24:14.429Z,6.79
2023-03-17T01:26:42.284Z,6.88
2023-03-17T01:29:10.250Z,6.91
2023-03-17T01:31:39.205Z,6.90
2023-03-17T01:34:07.170Z,6.71
2023-03-17T01:36:37.497Z,6.66
2023-03-17T01:39:07.334Z,6.30
2023-03-17T01:41:40.010Z,6.17
2023-03-17T01:44:08.571Z,6.21
2023-03-17T01:46:37.562Z,6.23
2023-03-17T01:49:14.689Z,6.34
2023-03-17T01:51:52.649Z,6.09
2023-03-17T01:54:25.584Z,6.16
2023-03-17T01:57:01.091Z,6.31
2023-03-17T01:59:35.914Z,6.11
2023-03-17T02:02:09.117Z,6.16
2023-03-17T02:04:38.638Z,6.32
2023-03-17T02:07:08.670Z,6.28
2023-03-17T02:09:38.700Z,6.13
2023-03-17T02:12:09.218Z,6.17
2023-03-17T02:14:39.382Z,6.22
2023-03-17T02:17:07.848Z,6.50
2023-03-17T02:19:35.864Z,6.63
2023-03-17T02:22:05.609Z,6.64
2023-03-17T02:24:38.617Z,6.55
2023-03-17T02:27:11.936Z,6.37
2023-03-17T02:29:40.405Z,6.14
2023-03-17T02:32:10.916Z,6.18
2023-03-17T02:34:38.681Z,6.25
2023-03-17T02:37:08.799Z,5.96
2023-03-17T02:39:37.973Z,6.00
2023-03-17T02:42:07.060Z,6.09
2023-03-17T02:44:35.438Z,6.21
2023-03-17T02:47:04.330Z,6.23
2023-03-17T02:49:33.844Z,6.34
2023-03-17T02:52:02.675Z,6.41
2023-03-17T02:54:32.324Z,6.47
2023-03-17T02:57:01.029Z,6.59
2023-03-17T02:59:29.134Z,6.58
2023-03-17T03:01:57.448Z,6.66
2023-03-17T03:04:26.301Z,6.66
2023-03-17T03:06:55.186Z,6.73
2023-03-17T03:09:24.164Z,6.73
2023-03-17T03:11:53.367Z,6.80
2023-03-17T03:14:21.289Z,6.78
2023-03-17T03:16:49.789Z,6.77
2023-03-17T03:19:17.664Z,6.71
2023-03-17T03:21:46.165Z,6.73
2023-03-17T03:24:14.154Z,6.70
2023-03-17T03:26:42.479Z,6.64
2023-03-17T03:29:11.649Z,6.69
2023-03-17T03:31:39.547Z,6.68
2023-03-17T03:34:07.543Z,6.69
2023-03-17T03:36:35.453Z,6.65
2023-03-17T03:39:03.277Z,6.65
2023-03-17T03:41:31.203Z,6.73
2023-03-17T03:43:59.046Z,6.68
2023-03-17T03:46:29.079Z,6.59
2023-03-17T03:48:56.950Z,6.57
2023-03-17T03:51:24.982Z,6.45
2023-03-17T03:53:52.883Z,6.41
2023-03-17T03:56:20.779Z,6.52
2023-03-17T03:58:48.548Z,6.56
2023-03-17T04:01:16.527Z,6.59
2023-03-17T04:03:47.209Z,6.59
2023-03-17T04:06:16.221Z,6.52
2023-03-17T04:08:44.436Z,6.46
2023-03-17T04:11:12.397Z,6.49
2023-03-17T04:13:40.212Z,6.50
2023-03-17T04:16:08.814Z,6.40
2023-03-17T04:18:36.964Z,6.41
2023-03-17T04:21:07.115Z,6.33
2023-03-17T04:23:35.509Z,6.34
2023-03-17T04:26:04.079Z,6.41
2023-03-17T04:28:32.456Z,6.46
2023-03-17T04:31:00.575Z,6.39
2023-03-17T04:33:28.777Z,6.37
2023-03-17T04:35:56.960Z,6.29
2023-03-17T04:38:26.144Z,6.18
2023-03-17T04:40:54.411Z,6.20
2023-03-17T04:43:22.205Z,6.26
2023-03-17T04:45:50.060Z,6.29
2023-03-17T04:48:17.944Z,6.30
2023-03-17T04:50:47.764Z,6.21
2023-03-17T04:53:15.607Z,6.17
2023-03-17T04:55:45.185Z,6.25
2023-03-17T04:58:21.117Z,6.30
2023-03-17T05:00:56.108Z,6.26
2023-03-17T05:03:28.153Z,6.33
2023-03-17T05:05:56.477Z,6.33
2023-03-17T05:08:24.399Z,6.33
2023-03-17T05:10:53.659Z,6.33
2023-03-17T05:13:22.095Z,6.32
2023-03-17T05:15:51.593Z,6.22
2023-03-17T05:18:20.926Z,6.03
2023-03-17T05:20:48.789Z,6.07
2023-03-17T05:23:17.004Z,6.04
2023-03-17T05:25:45.742Z,5.82
2023-03-17T05:28:15.012Z,6.01
2023-03-17T05:30:44.030Z,5.84
2023-03-17T05:33:11.904Z,5.99
2023-03-17T05:35:40.782Z,5.81
2023-03-17T05:38:08.730Z,5.78
2023-03-17T05:40:36.998Z,5.73
2023-03-17T05:43:06.101Z,5.58
2023-03-17T05:45:35.527Z,5.31
2023-03-17T05:48:04.301Z,5.26
2023-03-17T05:50:32.801Z,5.33
2023-03-17T05:53:00.942Z,5.29
2023-03-17T05:55:28.963Z,5.35
2023-03-17T05:57:56.939Z,5.40
2023-03-17T06:00:29.299Z,5.28
2023-03-17T06:02:59.048Z,5.25
2023-03-17T06:05:27.234Z,5.42
2023-03-17T06:07:56.569Z,5.71
2023-03-17T06:10:25.014Z,5.72
2023-03-17T06:12:52.918Z,5.60
2023-03-17T06:15:21.340Z,5.56
2023-03-17T06:17:49.324Z,5.57
2023-03-17T06:20:19.225Z,5.82
2023-03-17T06:23:02.692Z,6.05
2023-03-17T06:25:32.032Z,6.20
2023-03-17T06:28:02.433Z,6.23
2023-03-17T06:30:32.722Z,6.28
2023-03-17T06:33:01.152Z,6.20
2023-03-17T06:35:30.947Z,6.41
2023-03-17T06:37:59.098Z,6.45
2023-03-17T06:40:26.938Z,6.58
2023-03-17T06:42:54.886Z,6.42
2023-03-17T06:45:23.080Z,6.56
2023-03-17T06:47:51.174Z,6.69
2023-03-17T06:50:19.516Z,6.61
2023-03-17T06:52:48.720Z,6.72
2023-03-17T06:55:17.535Z,6.89
2023-03-17T06:57:45.872Z,6.80
2023-03-17T07:00:15.837Z,7.05
2023-03-17T07:02:44.206Z,7.15
2023-03-17T07:05:13.876Z,7.44
2023-03-17T07:07:42.453Z,7.77
2023-03-17T07:10:13.743Z,7.65
2023-03-17T07:12:41.571Z,8.08
2023-03-17T07:15:11.040Z,8.41
2023-03-17T07:17:42.210Z,8.38
2023-03-17T07:20:11.660Z,8.67
2023-03-17T07:22:39.605Z,8.60
2023-03-17T07:25:09.694Z,8.92
2023-03-17T07:27:38.972Z,9.02
2023-03-17T07:30:08.289Z,9.16
2023-03-17T07:32:36.260Z,9.31
2023-03-17T07:35:04.961Z,8.78
2023-03-17T07:37:32.943Z,9.23
2023-03-17T07:40:01.209Z,9.55
2023-03-17T07:42:30.147Z,9.71
2023-03-17T07:44:59.665Z,9.76
2023-03-17T07:47:27.531Z,10.33
2023-03-17T07:49:55.449Z,10.25
2023-03-17T07:52:23.335Z,10.03
2023-03-17T07:54:52.112Z,10.17
2023-03-17T07:57:20.079Z,10.24
2023-03-17T07:59:47.940Z,10.61
2023-03-17T08:02:19.631Z,10.94
2023-03-17T08:04:48.002Z,11.33
2023-03-17T08:07:18.624Z,11.47
2023-03-17T08:09:48.209Z,10.82
2023-03-17T08:12:20.035Z,11.67
2023-03-17T08:14:48.565Z,12.05
2023-03-17T08:17:18.079Z,12.99
2023-03-17T08:19:46.777Z,13.16
2023-03-17T08:22:15.205Z,13.00
2023-03-17T08:24:43.242Z,13.00
2023-03-17T08:27:11.211Z,12.59
2023-03-17T08:29:39.163Z,13.16
2023-03-17T08:32:08.014Z,13.25
2023-03-17T08:34:37.646Z,12.67
2023-03-17T08:37:07.004Z,13.46
2023-03-17T08:39:36.301Z,13.70
2023-03-17T08:42:06.182Z,13.29
2023-03-17T08:44:34.395Z,14.21
2023-03-17T08:47:02.325Z,14.25
2023-03-17T08:49:31.113Z,14.81
2023-03-17T08:52:00.984Z,14.20
2023-03-17T08:54:29.186Z,14.95
2023-03-17T08:56:57.132Z,15.44
2023-03-17T08:59:27.687Z,15.63
2023-03-17T09:01:55.738Z,15.76
2023-03-17T09:04:24.028Z,16.00
2023-03-17T09:07:02.735Z,16.13
2023-03-17T09:09:34.544Z,16.68
2023-03-17T09:12:04.468Z,16.35
2023-03-17T09:14:42.884Z,16.93
2023-03-17T09:17:12.168Z,17.09
2023-03-17T09:19:40.537Z,17.81
2023-03-17T09:22:08.727Z,18.06
2023-03-17T09:24:38.210Z,16.88
2023-03-17T09:27:06.445Z,17.02
2023-03-17T09:29:35.054Z,16.28
2023-03-17T09:32:03.706Z,16.45
2023-03-17T09:34:32.898Z,16.41
2023-03-17T09:37:01.003Z,16.53
2023-03-17T09:39:29.019Z,16.31
2023-03-17T09:42:19.904Z,16.43
2023-03-17T09:45:00.114Z,17.26
2023-03-17T09:47:49.877Z,17.05
2023-03-17T09:50:26.869Z,17.68
2023-03-17T09:52:58.661Z,18.09
2023-03-17T09:55:30.788Z,17.85
2023-03-17T09:58:03.496Z,18.18
2023-03-17T10:00:32.743Z,17.44
2023-03-17T10:03:02.402Z,16.62
2023-03-17T10:05:32.659Z,17.10
2023-03-17T10:08:28.942Z,17.46
2023-03-17T10:11:03.424Z,18.17
2023-03-17T10:13:46.495Z,18.66
2023-03-17T10:16:17.745Z,18.40
2023-03-17T10:18:54.301Z,18.65
2023-03-17T10:21:26.799Z,18.19
2023-03-17T10:23:56.353Z,18.42
2023-03-17T10:26:31.678Z,18.44
2023-03-17T10:29:04.163Z,18.06
2023-03-17T10:31:35.886Z,18.27
2023-03-17T10:34:15.680Z,18.43
2023-03-17T10:36:47.343Z,18.11
2023-03-17T10:39:19.662Z,18.23
2023-03-17T10:41:57.406Z,18.57
2023-03-17T10:44:44.252Z,18.77
2023-03-17T10:47:30.396Z,18.13
2023-03-17T10:49:59.815Z,18.45
2023-03-17T10:52:30.141Z,18.80
2023-03-17T10:55:03.771Z,18.47
2023-03-17T10:57:32.881Z,18.35
2023-03-17T11:00:05.111Z,19.21
2023-03-17T11:02:44.282Z,19.46
2023-03-17T11:05:20.587Z,20.01
2023-03-17T11:07:48.851Z,19.96
2023-03-17T11:10:21.008Z,19.87
2023-03-17T11:12:51.343Z,20.02
2023-03-17T11:15:21.132Z,19.05
2023-03-17T11:17:56.873Z,19.55
2023-03-17T11:20:45.762Z,20.10
2023-03-17T11:23:24.186Z,20.29
2023-03-17T11:26:03.065Z,19.91
2023-03-17T11:28:37.029Z,20.04
2023-03-17T11:31:13.132Z,19.98
2023-03-17T11:33:49.695Z,20.26
2023-03-17T11:36:31.622Z,20.64
2023-03-17T11:39:05.707Z,20.21
2023-03-17T11:41:46.067Z,20.64
2023-03-17T11:44:46.540Z,20.54
2023-03-17T11:47:28.929Z,20.20
2023-03-17T11:50:04.832Z,19.96
2023-03-17T11:52:44.518Z,20.20
2023-03-17T11:55:21.674Z,19.98
2023-03-17T11:57:55.182Z,20.66
2023-03-17T12:00:29.406Z,21.35
2023-03-17T12:03:03.364Z,20.98
2023-03-17T12:05:31.995Z,21.18
2023-03-17T12:08:04.230Z,20.44
2023-03-17T12:10:39.800Z,21.12
2023-03-17T12:13:16.636Z,20.32
2023-03-17T12:15:50.822Z,20.77
2023-03-17T12:18:25.292Z,21.30
2023-03-17T12:21:08.751Z,21.15
2023-03-17T12:23:48.150Z,21.45
2023-03-17T12:26:21.199Z,21.58
2023-03-17T12:28:55.627Z,21.11
2023-03-17T12:31:28.168Z,21.25
2023-03-17T12:34:06.466Z,21.46
2023-03-17T12:36:38.089Z,21.78
2023-03-17T12:39:12.686Z,21.82
2023-03-17T12:42:00.160Z,21.83
2023-03-17T12:44:45.888Z,21.10
2023-03-17T12:47:38.026Z,20.41
2023-03-17T12:50:28.596Z,20.29
2023-03-17T12:53:33.664Z,19.68
2023-03-17T12:56:11.985Z,20.34
2023-03-17T12:58:47.021Z,20.46
2023-03-17T13:01:24.261Z,21.18
2023-03-17T13:04:03.553Z,20.91
2023-03-17T13:06:42.027Z,21.07
2023-03-17T13:09:35.398Z,19.66
2023-03-17T13:12:05.000Z,19.73
2023-03-17T13:14:43.955Z,20.57
2023-03-17T13:17:33.760Z,19.98
2023-03-17T13:20:16.119Z,20.01
2023-03-17T13:23:03.971Z,20.04
2023-03-17T13:25:35.499Z,20.12
2023-03-17T13:28:27.100Z,19.66
2023-03-17T13:31:18.184Z,19.60
2023-03-17T13:33:50.689Z,20.04
2023-03-17T13:36:35.254Z,20.27
2023-03-17T13:39:33.452Z,20.55
2023-03-17T13:42:18.571Z,19.99
2023-03-17T13:45:07.338Z,19.85
2023-03-17T13:47:40.100Z,20.00
2023-03-17T13:50:14.371Z,20.07
2023-03-17T13:52:47.785Z,19.82
2023-03-17T13:55:43.018Z,19.97
2023-03-17T13:58:26.082Z,19.65
2023-03-17T14:01:05.263Z,19.56
2023-03-17T14:03:48.643Z,19.89
2023-03-17T14:06:21.445Z,19.66
2023-03-17T14:09:03.655Z,19.66
2023-03-17T14:11:56.914Z,20.16
2023-03-17T14:14:54.474Z,20.10
2023-03-17T14:17:46.843Z,20.34
2023-03-17T14:20:40.261Z,19.93
2023-03-17T14:23:27.499Z,20.33
2023-03-17T14:26:14.303Z,20.24
2023-03-17T14:29:01.545Z,20.59
2023-03-17T14:31:56.928Z,20.44
2023-03-17T14:34:44.035Z,20.69
2023-03-17T14:37:38.492Z,20.76
2023-03-17T14:40:49.710Z,20.76
2023-03-17T14:43:47.434Z,20.88
2023-03-17T14:46:47.194Z,20.88
2023-03-17T14:49:41.787Z,20.73
2023-03-17T14:52:47.836Z,20.78
2023-03-17T14:55:45.221Z,20.96
2023-03-17T14:58:41.149Z,21.12
2023-03-17T15:01:36.524Z,20.62
2023-03-17T15:04:24.487Z,20.29
2023-03-17T15:07:10.210Z,20.43
2023-03-17T15:09:54.965Z,20.73
2023-03-17T15:12:37.118Z,20.61
2023-03-17T15:15:35.197Z,20.30
2023-03-17T15:18:25.531Z,20.45
2023-03-17T15:21:11.969Z,20.74
2023-03-17T15:23:54.750Z,20.97
2023-03-17T15:26:42.479Z,20.36
2023-03-17T15:29:27.604Z,20.18
2023-03-17T15:32:17.080Z,20.24
2023-03-17T15:35:00.111Z,20.17
2023-03-17T15:37:52.847Z,20.27
2023-03-17T15:40:33.635Z,20.55
2023-03-17T15:43:23.275Z,20.64
2023-03-17T15:46:17.978Z,20.06
2023-03-17T15:48:56.214Z,19.73
2023-03-17T15:51:47.391Z,19.75
2023-03-17T15:54:32.742Z,19.87
2023-03-17T15:57:22.418Z,19.69
2023-03-17T16:00:04.831Z,19.49
2023-03-17T16:02:53.123Z,19.47
2023-03-17T16:05:35.558Z,19.38
2023-03-17T16:08:16.580Z,19.55
2023-03-17T16:11:32.597Z,19.61
2023-03-17T16:14:51.736Z,19.65
2023-03-17T16:17:37.825Z,19.21
2023-03-17T16:22:15.911Z,19.06
2023-03-17T16:34:54.740Z,18.48
2023-03-17T16:37:48.660Z,18.60
2023-03-17T16:55:50.626Z,17.85
2023-03-17T16:59:38.153Z,17.53
2023-03-17T17:08:26.633Z,17.76
2023-03-17T17:11:47.249Z,17.82
2023-03-17T17:14:43.460Z,17.76
2023-03-17T17:21:17.891Z,17.60
2023-03-17T17:23:46.344Z,17.49
2023-03-17T17:26:18.730Z,17.40
2023-03-17T17:28:47.245Z,17.35
2023-03-17T17:31:16.032Z,17.05
2023-03-17T17:33:45.303Z,16.79
2023-03-17T17:36:16.479Z,16.94
2023-03-17T17:38:47.858Z,16.81
2023-03-17T17:41:17.270Z,16.80
2023-03-17T17:43:47.271Z,16.80
2023-03-17T17:46:19.507Z,16.83
2023-03-17T17:48:51.068Z,16.80
2023-03-17T17:51:23.299Z,16.68
2023-03-17T17:53:51.742Z,16.49
2023-03-17T17:56:20.349Z,16.46
2023-03-17T17:58:50.196Z,16.46
2023-03-17T18:01:44.546Z,16.21
2023-03-17T18:04:17.063Z,16.17
2023-03-17T18:06:45.998Z,16.24
2023-03-17T18:09:15.145Z,16.23
2023-03-17T18:11:43.171Z,16.12
2023-03-17T18:14:14.128Z,15.95
2023-03-17T18:17:11.056Z,15.61
2023-03-17T18:29:10.594Z,15.02
2023-03-17T18:32:15.884Z,15.16
2023-03-17T18:53:26.961Z,14.72
2023-03-17T18:55:55.849Z,14.60
2023-03-17T18:58:35.277Z,14.78
2023-03-17T19:01:06.325Z,14.94
2023-03-17T19:03:35.119Z,14.84
2023-03-17T19:06:09.959Z,14.88
2023-03-17T19:08:39.543Z,14.78
2023-03-17T19:11:09.057Z,14.19
2023-03-17T19:13:37.869Z,14.39
2023-03-17T19:16:07.554Z,14.47
2023-03-17T19:18:36.632Z,14.52
2023-03-17T19:21:05.112Z,14.48
2023-03-17T19:23:33.791Z,14.58
2023-03-17T19:26:04.678Z,14.56
2023-03-17T19:28:32.671Z,14.53
2023-03-17T19:31:01.127Z,14.30
2023-03-17T19:33:29.762Z,13.87
2023-03-17T19:35:59.983Z,13.23
2023-03-17T19:38:28.485Z,13.62
2023-03-17T19:40:56.483Z,13.91
2023-03-17T19:43:39.531Z,14.03
2023-03-17T19:46:10.509Z,13.97
2023-03-17T19:48:38.676Z,13.23
2023-03-17T19:51:07.988Z,13.07
2023-03-17T19:53:37.421Z,13.21
2023-03-17T19:56:06.443Z,13.39
2023-03-17T19:58:36.008Z,13.30
2023-03-17T20:01:04.129Z,13.21
2023-03-17T20:03:33.567Z,12.49
2023-03-17T20:06:06.025Z,12.84
2023-03-17T20:08:34.358Z,13.31
2023-03-17T20:11:02.436Z,13.50
2023-03-17T20:13:30.534Z,13.29
2023-03-17T20:16:02.783Z,13.32
2023-03-17T20:18:31.012Z,13.11
2023-03-17T20:21:00.613Z,12.26
2023-03-17T20:23:28.633Z,12.35
2023-03-17T20:25:57.038Z,12.68
2023-03-17T20:28:25.337Z,12.87
2023-03-17T20:30:53.914Z,12.90
2023-03-17T20:33:23.561Z,12.62
2023-03-17T20:35:51.663Z,12.75
2023-03-17T20:38:19.762Z,12.76
2023-03-17T20:40:48.277Z,12.94
2023-03-17T20:43:17.036Z,12.95
2023-03-17T20:45:45.711Z,12.93
2023-03-17T20:48:14.453Z,12.90
2023-03-17T20:50:49.857Z,12.89
2023-03-17T20:53:17.809Z,12.89
2023-03-17T20:55:47.185Z,12.53
2023-03-17T20:58:15.035Z,12.65
2023-03-17T21:00:42.903Z,12.74
2023-03-17T21:03:10.813Z,12.67
2023-03-17T21:05:39.465Z,12.71
2023-03-17T21:08:08.770Z,12.74
2023-03-17T21:10:36.945Z,12.74
2023-03-17T21:13:05.099Z,12.65
2023-03-17T21:15:33.060Z,12.52
2023-03-17T21:18:01.121Z,12.57
2023-03-17T21:20:29.516Z,12.58
2023-03-17T21:22:57.805Z,12.64
2023-03-17T21:25:28.135Z,12.68
2023-03-17T21:27:56.479Z,12.70
2023-03-17T21:30:24.351Z,12.69
2023-03-17T21:32:53.669Z,12.72
2023-03-17T21:35:21.766Z,12.57
2023-03-17T21:37:50.489Z,11.92
2023-03-17T21:40:19.002Z,12.17
2023-03-17T21:42:49.315Z,11.80
2023-03-17T21:45:17.974Z,11.86
2023-03-17T21:47:45.897Z,11.46
2023-03-17T21:50:17.103Z,11.56
2023-03-17T21:52:45.792Z,11.84
2023-03-17T21:55:14.459Z,12.17
2023-03-17T21:57:42.987Z,12.36
2023-03-17T22:00:13.934Z,12.39
2023-03-17T22:02:42.846Z,12.37
2023-03-17T22:05:11.434Z,12.32
2023-03-17T22:07:41.334Z,11.75
2023-03-17T22:10:10.230Z,11.35
2023-03-17T22:12:38.930Z,11.54
2023-03-17T22:15:08.847Z,11.86
2023-03-17T22:17:38.157Z,12.08
2023-03-17T22:20:09.114Z,12.24
2023-03-17T22:22:37.145Z,12.27
2023-03-17T22:25:06.248Z,12.17
2023-03-17T22:27:34.614Z,12.00
2023-03-17T22:30:02.671Z,12.08
2023-03-17T22:32:30.869Z,12.17
2023-03-17T22:35:00.286Z,11.84
2023-03-17T22:37:28.244Z,11.71
2023-03-17T22:39:56.063Z,11.90
2023-03-17T22:42:23.844Z,12.02
2023-03-17T22:44:51.782Z,11.50
2023-03-17T22:47:19.722Z,11.50
2023-03-17T22:49:47.582Z,11.82
2023-03-17T22:52:16.828Z,11.94
2023-03-17T22:54:44.752Z,11.99
2023-03-17T22:57:12.690Z,11.93
2023-03-17T22:59:40.529Z,11.70
2023-03-17T23:02:09.045Z,11.49
2023-03-17T23:04:37.025Z,11.51
2023-03-17T23:07:05.326Z,11.38
2023-03-17T23:09:34.855Z,11.66
2023-03-17T23:12:02.824Z,11.79
2023-03-17T23:14:30.832Z,11.29
2023-03-17T23:16:58.764Z,11.09
2023-03-17T23:19:27.380Z,11.07
2023-03-17T23:21:55.307Z,11.12
2023-03-17T23:24:23.218Z,11.45
2023-03-17T23:26:53.477Z,11.58
2023-03-17T23:29:21.394Z,11.68
2023-03-17T23:31:51.417Z,11.57
2023-03-17T23:34:19.635Z,11.38
2023-03-17T23:36:47.606Z,11.33
2023-03-17T23:39:15.634Z,11.00
2023-03-17T23:41:44.903Z,11.05
2023-03-17T23:44:14.851Z,11.32
2023-03-17T23:46:44.930Z,11.08
2023-03-17T23:49:13.264Z,11.22
2023-03-17T23:51:41.710Z,11.24
2023-03-17T23:54:10.218Z,11.29
2023-03-17T23:56:40.908Z,11.27
2023-03-17T23:59:10.696Z,11.03
